sensor_id;sensor_type;location;lat;lon;timestamp;pressure;altitude;pressure_sealevel;temperature;humidity
62942;BME280;49042;47.318;19.874;2023-03-24T00:02:15;100283.91;;;9.08;79.48
62942;BME280;49042;47.318;19.874;2023-03-24T00:05:19;100270.66;;;9.27;78.54
62942;BME280;49042;47.318;19.874;2023-03-24T00:08:21;100270.38;;;9.19;78.61
62942;BME280;49042;47.318;19.874;2023-03-24T00:11:23;100270.91;;;9.35;78.29
62942;BME280;49042;47.318;19.874;2023-03-24T00:14:25;100270.75;;;9.30;78.51
62942;BME280;49042;47.318;19.874;2023-03-24T00:17:31;100267.41;;;9.34;77.92
62942;BME280;49042;47.318;19.874;2023-03-24T00:20:36;100277.00;;;9.35;77.65
62942;BME280;49042;47.318;19.874;2023-03-24T00:23:37;100268.47;;;9.39;77.05
62942;BME280;49042;47.318;19.874;2023-03-24T00:26:43;100270.19;;;9.39;77.23
62942;BME280;49042;47.318;19.874;2023-03-24T00:29:44;100261.19;;;9.29;77.38
62942;BME280;49042;47.318;19.874;2023-03-24T00:32:46;100269.91;;;9.31;77.19
62942;BME280;49042;47.318;19.874;2023-03-24T00:35:48;100268.31;;;9.35;76.80
62942;BME280;49042;47.318;19.874;2023-03-24T00:38:51;100256.84;;;9.29;76.52
62942;BME280;49042;47.318;19.874;2023-03-24T00:41:53;100250.31;;;9.15;77.14
62942;BME280;49042;47.318;19.874;2023-03-24T00:44:59;100243.00;;;8.78;78.89
62942;BME280;49042;47.318;19.874;2023-03-24T00:48:00;100248.62;;;8.91;78.53
62942;BME280;49042;47.318;19.874;2023-03-24T00:51:04;100243.69;;;8.98;78.23
62942;BME280;49042;47.318;19.874;2023-03-24T00:54:10;100241.34;;;9.06;78.12
62942;BME280;49042;47.318;19.874;2023-03-24T00:57:14;100237.03;;;9.07;77.87
62942;BME280;49042;47.318;19.874;2023-03-24T01:00:24;100233.34;;;9.00;78.36
62942;BME280;49042;47.318;19.874;2023-03-24T01:03:27;100232.28;;;8.95;78.30
62942;BME280;49042;47.318;19.874;2023-03-24T01:06:28;100234.84;;;8.93;78.34
62942;BME280;49042;47.318;19.874;2023-03-24T01:09:30;100233.81;;;8.88;78.72
62942;BME280;49042;47.318;19.874;2023-03-24T01:12:35;100233.47;;;8.54;80.44
62942;BME280;49042;47.318;19.874;2023-03-24T01:15:37;100231.38;;;8.43;80.28
62942;BME280;49042;47.318;19.874;2023-03-24T01:18:39;100221.13;;;8.48;79.88
62942;BME280;49042;47.318;19.874;2023-03-24T01:21:42;100224.84;;;8.30;80.59
62942;BME280;49042;47.318;19.874;2023-03-24T01:24:44;100225.19;;;8.17;81.23
62942;BME280;49042;47.318;19.874;2023-03-24T01:27:47;100215.06;;;8.48;79.61
62942;BME280;49042;47.318;19.874;2023-03-24T01:30:51;100212.59;;;8.52;79.01
62942;BME280;49042;47.318;19.874;2023-03-24T01:33:53;100213.97;;;8.41;79.03
62942;BME280;49042;47.318;19.874;2023-03-24T01:36:55;100209.50;;;8.38;79.13
62942;BME280;49042;47.318;19.874;2023-03-24T01:39:56;100217.16;;;8.33;79.60
62942;BME280;49042;47.318;19.874;2023-03-24T01:42:59;100206.87;;;8.37;79.19
62942;BME280;49042;47.318;19.874;2023-03-24T01:49:09;100202.87;;;8.22;80.10
62942;BME280;49042;47.318;19.874;2023-03-24T01:52:24;100207.59;;;8.09;80.61
62942;BME280;49042;47.318;19.874;2023-03-24T01:55:27;100202.41;;;8.09;80.97
62942;BME280;49042;47.318;19.874;2023-03-24T01:58:30;100198.06;;;8.08;81.10
62942;BME280;49042;47.318;19.874;2023-03-24T02:01:33;100197.16;;;8.08;80.99
62942;BME280;49042;47.318;19.874;2023-03-24T02:04:41;100194.88;;;7.92;81.61
62942;BME280;49042;47.318;19.874;2023-03-24T02:10:52;100193.88;;;7.66;83.08
62942;BME280;49042;47.318;19.874;2023-03-24T02:13:55;100185.97;;;7.86;82.41
62942;BME280;49042;47.318;19.874;2023-03-24T02:17:13;100178.19;;;7.63;82.87
62942;BME280;49042;47.318;19.874;2023-03-24T02:27:03;100169.66;;;7.21;85.24
62942;BME280;49042;47.318;19.874;2023-03-24T02:30:34;100166.84;;;7.16;85.77
62942;BME280;49042;47.318;19.874;2023-03-24T02:40:41;100164.31;;;7.17;86.21
62942;BME280;49042;47.318;19.874;2023-03-24T02:44:05;100160.34;;;7.26;85.59
62942;BME280;49042;47.318;19.874;2023-03-24T02:47:55;100159.75;;;7.33;85.29
62942;BME280;49042;47.318;19.874;2023-03-24T02:50:44;100150.72;;;7.23;85.32
62942;BME280;49042;47.318;19.874;2023-03-24T02:57:03;100151.75;;;7.05;85.96
62942;BME280;49042;47.318;19.874;2023-03-24T03:00:16;100149.06;;;7.04;86.36
62942;BME280;49042;47.318;19.874;2023-03-24T03:03:33;100150.97;;;6.87;88.23
62942;BME280;49042;47.318;19.874;2023-03-24T03:06:39;100149.47;;;6.92;87.57
62942;BME280;49042;47.318;19.874;2023-03-24T03:09:49;100154.84;;;6.96;87.57
62942;BME280;49042;47.318;19.874;2023-03-24T03:12:56;100151.06;;;6.88;87.71
62942;BME280;49042;47.318;19.874;2023-03-24T03:16:03;100151.09;;;6.90;87.79
62942;BME280;49042;47.318;19.874;2023-03-24T03:19:18;100144.41;;;6.95;87.77
62942;BME280;49042;47.318;19.874;2023-03-24T03:22:24;100148.63;;;6.93;87.68
62942;BME280;49042;47.318;19.874;2023-03-24T03:25:32;100154.22;;;6.61;89.15
62942;BME280;49042;47.318;19.874;2023-03-24T03:28:39;100143.00;;;6.60;89.10
62942;BME280;49042;47.318;19.874;2023-03-24T03:31:49;100145.41;;;6.77;88.74
62942;BME280;49042;47.318;19.874;2023-03-24T03:34:59;100141.75;;;6.72;89.05
62942;BME280;49042;47.318;19.874;2023-03-24T03:38:16;100142.88;;;6.57;90.66
62942;BME280;49042;47.318;19.874;2023-03-24T03:41:20;100144.75;;;6.61;90.51
62942;BME280;49042;47.318;19.874;2023-03-24T03:44:23;100144.84;;;6.63;90.24
62942;BME280;49042;47.318;19.874;2023-03-24T03:47:25;100131.19;;;6.67;90.16
62942;BME280;49042;47.318;19.874;2023-03-24T03:50:27;100135.63;;;6.70;90.38
62942;BME280;49042;47.318;19.874;2023-03-24T03:53:45;100133.22;;;6.74;90.28
62942;BME280;49042;47.318;19.874;2023-03-24T03:56:48;100136.00;;;6.79;90.10
62942;BME280;49042;47.318;19.874;2023-03-24T03:59:50;100137.12;;;6.86;89.62
62942;BME280;49042;47.318;19.874;2023-03-24T04:12:32;100122.97;;;6.78;90.18
62942;BME280;49042;47.318;19.874;2023-03-24T04:35:41;100125.75;;;7.04;88.91
62942;BME280;49042;47.318;19.874;2023-03-24T04:38:48;100129.47;;;7.11;88.82
62942;BME280;49042;47.318;19.874;2023-03-24T04:41:55;100126.94;;;7.12;88.67
62942;BME280;49042;47.318;19.874;2023-03-24T04:44:58;100126.94;;;7.12;88.21
62942;BME280;49042;47.318;19.874;2023-03-24T04:48:04;100116.22;;;7.03;88.64
62942;BME280;49042;47.318;19.874;2023-03-24T04:51:08;100127.28;;;6.99;88.82
62942;BME280;49042;47.318;19.874;2023-03-24T04:54:10;100124.44;;;6.92;89.01
62942;BME280;49042;47.318;19.874;2023-03-24T04:57:11;100127.12;;;6.52;91.62
62942;BME280;49042;47.318;19.874;2023-03-24T05:00:13;100129.41;;;6.66;90.82
62942;BME280;49042;47.318;19.874;2023-03-24T05:03:17;100132.91;;;6.88;89.83
62942;BME280;49042;47.318;19.874;2023-03-24T05:06:19;100133.88;;;6.49;92.34
62942;BME280;49042;47.318;19.874;2023-03-24T05:09:23;100130.44;;;6.70;90.96
62942;BME280;49042;47.318;19.874;2023-03-24T05:12:25;100134.81;;;6.71;91.19
62942;BME280;49042;47.318;19.874;2023-03-24T05:15:27;100139.38;;;6.35;92.23
62942;BME280;49042;47.318;19.874;2023-03-24T05:18:29;100142.31;;;6.05;94.46
62942;BME280;49042;47.318;19.874;2023-03-24T05:21:31;100140.91;;;6.12;94.27
62942;BME280;49042;47.318;19.874;2023-03-24T05:24:34;100145.25;;;6.11;94.67
62942;BME280;49042;47.318;19.874;2023-03-24T05:27:36;100145.50;;;6.17;95.71
62942;BME280;49042;47.318;19.874;2023-03-24T05:30:38;100158.59;;;5.82;97.19
62942;BME280;49042;47.318;19.874;2023-03-24T05:33:39;100161.88;;;5.98;97.09
62942;BME280;49042;47.318;19.874;2023-03-24T05:36:41;100154.84;;;5.95;97.07
62942;BME280;49042;47.318;19.874;2023-03-24T05:39:43;100156.16;;;5.85;97.33
62942;BME280;49042;47.318;19.874;2023-03-24T05:42:48;100149.31;;;6.46;95.40
62942;BME280;49042;47.318;19.874;2023-03-24T05:45:49;100150.50;;;6.95;92.69
62942;BME280;49042;47.318;19.874;2023-03-24T05:48:51;100158.25;;;7.17;91.22
62942;BME280;49042;47.318;19.874;2023-03-24T05:51:53;100162.13;;;7.05;90.76
62942;BME280;49042;47.318;19.874;2023-03-24T05:54:56;100157.69;;;7.24;90.68
62942;BME280;49042;47.318;19.874;2023-03-24T05:57:58;100159.56;;;7.28;91.11
62942;BME280;49042;47.318;19.874;2023-03-24T06:01:07;100154.75;;;7.84;88.84
62942;BME280;49042;47.318;19.874;2023-03-24T06:04:10;100150.06;;;7.29;91.08
62942;BME280;49042;47.318;19.874;2023-03-24T06:07:14;100157.59;;;7.44;91.00
62942;BME280;49042;47.318;19.874;2023-03-24T06:10:16;100154.34;;;7.73;89.99
62942;BME280;49042;47.318;19.874;2023-03-24T06:13:18;100164.22;;;8.07;89.90
62942;BME280;49042;47.318;19.874;2023-03-24T06:16:20;100163.28;;;8.78;87.04
62942;BME280;49042;47.318;19.874;2023-03-24T06:19:25;100161.44;;;9.02;84.94
62942;BME280;49042;47.318;19.874;2023-03-24T06:22:29;100159.59;;;9.84;81.38
62942;BME280;49042;47.318;19.874;2023-03-24T06:25:31;100154.09;;;10.37;79.07
62942;BME280;49042;47.318;19.874;2023-03-24T06:28:40;100159.06;;;11.31;72.92
62942;BME280;49042;47.318;19.874;2023-03-24T06:31:47;100154.81;;;11.75;70.74
62942;BME280;49042;47.318;19.874;2023-03-24T06:34:49;100158.78;;;13.51;62.61
62942;BME280;49042;47.318;19.874;2023-03-24T06:37:51;100161.56;;;15.26;55.29
62942;BME280;49042;47.318;19.874;2023-03-24T06:40:52;100161.28;;;16.62;49.88
62942;BME280;49042;47.318;19.874;2023-03-24T06:43:54;100167.38;;;17.70;47.06
62942;BME280;49042;47.318;19.874;2023-03-24T06:46:56;100169.34;;;18.96;43.51
62942;BME280;49042;47.318;19.874;2023-03-24T06:49:58;100168.31;;;19.99;39.96
62942;BME280;49042;47.318;19.874;2023-03-24T06:53:00;100168.06;;;20.82;38.15
62942;BME280;49042;47.318;19.874;2023-03-24T06:56:02;100172.75;;;21.69;36.41
62942;BME280;49042;47.318;19.874;2023-03-24T06:59:04;100164.53;;;23.36;34.14
62942;BME280;49042;47.318;19.874;2023-03-24T07:02:09;100169.59;;;24.42;31.64
62942;BME280;49042;47.318;19.874;2023-03-24T07:05:13;100172.31;;;24.67;30.03
62942;BME280;49042;47.318;19.874;2023-03-24T07:08:15;100175.87;;;26.45;27.94
62942;BME280;49042;47.318;19.874;2023-03-24T07:11:37;100176.37;;;26.77;27.47
62942;BME280;49042;47.318;19.874;2023-03-24T07:14:38;100181.41;;;25.93;27.79
62942;BME280;49042;47.318;19.874;2023-03-24T07:17:41;100183.72;;;25.77;27.63
62942;BME280;49042;47.318;19.874;2023-03-24T07:20:43;100173.56;;;27.45;26.29
62942;BME280;49042;47.318;19.874;2023-03-24T07:23:45;100173.78;;;28.58;24.06
62942;BME280;49042;47.318;19.874;2023-03-24T07:26:47;100178.25;;;25.82;27.40
62942;BME280;49042;47.318;19.874;2023-03-24T07:29:49;100174.31;;;29.20;23.79
62942;BME280;49042;47.318;19.874;2023-03-24T07:32:50;100155.50;;;29.02;23.01
62942;BME280;49042;47.318;19.874;2023-03-24T07:35:55;100157.66;;;27.42;25.00
62942;BME280;49042;47.318;19.874;2023-03-24T07:38:57;100164.91;;;25.56;27.25
62942;BME280;49042;47.318;19.874;2023-03-24T07:41:59;100157.06;;;23.17;30.24
62942;BME280;49042;47.318;19.874;2023-03-24T07:45:01;100154.16;;;22.92;31.96
62942;BME280;49042;47.318;19.874;2023-03-24T07:48:02;100156.69;;;20.11;36.57
62942;BME280;49042;47.318;19.874;2023-03-24T07:51:04;100153.59;;;19.78;38.25
62942;BME280;49042;47.318;19.874;2023-03-24T07:54:06;100148.72;;;19.39;38.76
62942;BME280;49042;47.318;19.874;2023-03-24T07:57:08;100151.66;;;16.91;45.53
62942;BME280;49042;47.318;19.874;2023-03-24T08:00:12;100147.06;;;16.02;48.53
62942;BME280;49042;47.318;19.874;2023-03-24T08:03:20;100145.09;;;15.55;50.49
62942;BME280;49042;47.318;19.874;2023-03-24T08:06:28;100136.72;;;17.09;47.33
62942;BME280;49042;47.318;19.874;2023-03-24T08:09:30;100123.66;;;21.90;35.86
62942;BME280;49042;47.318;19.874;2023-03-24T08:12:32;100116.78;;;26.06;29.58
62942;BME280;49042;47.318;19.874;2023-03-24T08:15:34;100116.62;;;26.56;28.37
62942;BME280;49042;47.318;19.874;2023-03-24T08:18:35;100116.22;;;28.09;25.57
62942;BME280;49042;47.318;19.874;2023-03-24T08:21:39;100124.50;;;29.99;22.53
62942;BME280;49042;47.318;19.874;2023-03-24T08:24:41;100120.03;;;32.39;20.38
62942;BME280;49042;47.318;19.874;2023-03-24T08:27:43;100117.75;;;31.90;19.87
62942;BME280;49042;47.318;19.874;2023-03-24T08:30:45;100119.75;;;33.24;18.58
62942;BME280;49042;47.318;19.874;2023-03-24T08:33:47;100112.72;;;30.18;20.85
62942;BME280;49042;47.318;19.874;2023-03-24T08:36:49;100115.03;;;32.05;18.90
62942;BME280;49042;47.318;19.874;2023-03-24T08:39:51;100116.38;;;32.40;19.07
62942;BME280;49042;47.318;19.874;2023-03-24T08:42:56;100119.50;;;32.75;18.81
62942;BME280;49042;47.318;19.874;2023-03-24T08:45:59;100107.88;;;29.06;22.00
62942;BME280;49042;47.318;19.874;2023-03-24T08:49:01;100107.84;;;31.91;19.50
62942;BME280;49042;47.318;19.874;2023-03-24T08:52:03;100102.94;;;31.24;19.58
62942;BME280;49042;47.318;19.874;2023-03-24T08:55:06;100091.09;;;31.85;19.70
62942;BME280;49042;47.318;19.874;2023-03-24T08:58:14;100074.87;;;32.00;19.43
62942;BME280;49042;47.318;19.874;2023-03-24T09:01:17;100079.31;;;29.05;21.71
62942;BME280;49042;47.318;19.874;2023-03-24T09:04:18;100074.22;;;28.82;22.11
62942;BME280;49042;47.318;19.874;2023-03-24T09:07:20;100072.03;;;29.75;20.62
62942;BME280;49042;47.318;19.874;2023-03-24T09:10:22;100064.41;;;30.78;20.17
62942;BME280;49042;47.318;19.874;2023-03-24T09:13:24;100064.66;;;28.41;21.68
62942;BME280;49042;47.318;19.874;2023-03-24T09:16:26;100067.78;;;29.21;21.70
62942;BME280;49042;47.318;19.874;2023-03-24T09:19:28;100059.19;;;31.06;19.26
62942;BME280;49042;47.318;19.874;2023-03-24T09:22:30;100057.66;;;29.92;20.64
62942;BME280;49042;47.318;19.874;2023-03-24T09:25:32;100052.41;;;29.73;20.51
62942;BME280;49042;47.318;19.874;2023-03-24T09:28:33;100057.34;;;26.67;23.61
62942;BME280;49042;47.318;19.874;2023-03-24T09:31:35;100054.06;;;29.43;20.96
62942;BME280;49042;47.318;19.874;2023-03-24T09:34:37;100052.53;;;29.88;20.17
62942;BME280;49042;47.318;19.874;2023-03-24T09:37:40;100044.97;;;29.62;20.72
62942;BME280;49042;47.318;19.874;2023-03-24T09:40:44;100052.03;;;28.79;21.88
62942;BME280;49042;47.318;19.874;2023-03-24T09:44:03;100039.09;;;28.87;21.23
62942;BME280;49042;47.318;19.874;2023-03-24T09:50:20;100026.19;;;29.78;20.89
62942;BME280;49042;47.318;19.874;2023-03-24T09:53:37;100030.97;;;30.82;20.35
62942;BME280;49042;47.318;19.874;2023-03-24T09:56:43;100026.06;;;30.89;19.73
62942;BME280;49042;47.318;19.874;2023-03-24T09:59:45;100023.91;;;29.04;21.61
62942;BME280;49042;47.318;19.874;2023-03-24T10:02:48;100011.53;;;29.68;20.76
62942;BME280;49042;47.318;19.874;2023-03-24T10:05:59;100001.66;;;27.95;23.67
62942;BME280;49042;47.318;19.874;2023-03-24T10:09:49;100010.97;;;24.81;26.77
62942;BME280;49042;47.318;19.874;2023-03-24T10:12:47;100012.41;;;24.66;27.15
62942;BME280;49042;47.318;19.874;2023-03-24T10:19:33;100000.31;;;24.81;26.60
62942;BME280;49042;47.318;19.874;2023-03-24T10:29:21;99973.62;;;23.43;27.71
62942;BME280;49042;47.318;19.874;2023-03-24T10:32:27;99970.47;;;23.89;25.71
62942;BME280;49042;47.318;19.874;2023-03-24T10:35:36;99965.81;;;23.38;25.66
62942;BME280;49042;47.318;19.874;2023-03-24T10:38:40;99974.91;;;22.65;26.77
62942;BME280;49042;47.318;19.874;2023-03-24T10:41:42;99964.13;;;22.72;27.02
62942;BME280;49042;47.318;19.874;2023-03-24T10:44:46;99957.88;;;22.74;27.60
62942;BME280;49042;47.318;19.874;2023-03-24T10:47:49;99948.50;;;23.25;26.69
62942;BME280;49042;47.318;19.874;2023-03-24T10:50:57;99949.81;;;23.09;26.16
62942;BME280;49042;47.318;19.874;2023-03-24T10:54:24;99929.66;;;23.00;25.33
62942;BME280;49042;47.318;19.874;2023-03-24T10:57:26;99946.06;;;23.17;26.20
62942;BME280;49042;47.318;19.874;2023-03-24T11:00:29;99934.75;;;23.08;25.04
62942;BME280;49042;47.318;19.874;2023-03-24T11:03:34;99929.56;;;23.34;26.17
62942;BME280;49042;47.318;19.874;2023-03-24T11:06:37;99934.94;;;23.02;25.70
62942;BME280;49042;47.318;19.874;2023-03-24T11:09:41;99922.53;;;23.62;27.43
62942;BME280;49042;47.318;19.874;2023-03-24T11:19:05;99920.78;;;23.02;26.63
62942;BME280;49042;47.318;19.874;2023-03-24T11:22:08;99914.94;;;22.56;27.18
62942;BME280;49042;47.318;19.874;2023-03-24T11:25:12;99915.06;;;23.45;27.62
62942;BME280;49042;47.318;19.874;2023-03-24T11:28:15;99914.75;;;23.25;26.92
62942;BME280;49042;47.318;19.874;2023-03-24T11:31:26;99903.16;;;23.28;27.73
62942;BME280;49042;47.318;19.874;2023-03-24T11:34:33;99903.44;;;24.03;27.05
62942;BME280;49042;47.318;19.874;2023-03-24T11:37:39;99908.56;;;23.82;26.00
62942;BME280;49042;47.318;19.874;2023-03-24T11:40:55;99896.75;;;23.35;27.61
62942;BME280;49042;47.318;19.874;2023-03-24T11:44:15;99894.19;;;23.32;26.74
62942;BME280;49042;47.318;19.874;2023-03-24T11:47:31;99885.75;;;22.87;27.63
62942;BME280;49042;47.318;19.874;2023-03-24T11:50:36;99871.69;;;23.42;27.88
62942;BME280;49042;47.318;19.874;2023-03-24T11:53:46;99867.78;;;22.95;27.82
62942;BME280;49042;47.318;19.874;2023-03-24T11:56:53;99864.84;;;22.74;28.04
62942;BME280;49042;47.318;19.874;2023-03-24T12:00:04;99847.16;;;23.04;28.44
62942;BME280;49042;47.318;19.874;2023-03-24T12:07:36;99848.56;;;23.16;28.72
62942;BME280;49042;47.318;19.874;2023-03-24T12:11:06;99851.69;;;23.00;28.65
62942;BME280;49042;47.318;19.874;2023-03-24T12:14:09;99842.78;;;23.01;28.98
62942;BME280;49042;47.318;19.874;2023-03-24T12:17:21;99836.69;;;22.97;28.41
62942;BME280;49042;47.318;19.874;2023-03-24T12:20:33;99831.59;;;23.20;28.10
62942;BME280;49042;47.318;19.874;2023-03-24T12:26:58;99816.31;;;22.66;28.04
62942;BME280;49042;47.318;19.874;2023-03-24T12:37:38;99802.81;;;22.74;28.42
62942;BME280;49042;47.318;19.874;2023-03-24T12:41:16;99799.66;;;22.91;28.37
62942;BME280;49042;47.318;19.874;2023-03-24T12:55:23;99781.47;;;23.07;27.99
62942;BME280;49042;47.318;19.874;2023-03-24T13:04:40;99763.75;;;22.77;27.50
62942;BME280;49042;47.318;19.874;2023-03-24T13:07:43;99773.41;;;22.80;26.65
62942;BME280;49042;47.318;19.874;2023-03-24T13:10:49;99764.44;;;22.84;26.53
62942;BME280;49042;47.318;19.874;2023-03-24T13:13:56;99762.38;;;23.21;27.16
62942;BME280;49042;47.318;19.874;2023-03-24T13:17:13;99766.50;;;23.59;26.39
62942;BME280;49042;47.318;19.874;2023-03-24T13:20:27;99754.63;;;23.68;25.59
62942;BME280;49042;47.318;19.874;2023-03-24T13:23:35;99754.97;;;23.31;25.45
62942;BME280;49042;47.318;19.874;2023-03-24T13:33:16;99727.59;;;30.56;18.73
62942;BME280;49042;47.318;19.874;2023-03-24T13:36:36;99730.09;;;31.28;17.82
62942;BME280;49042;47.318;19.874;2023-03-24T13:39:42;99730.00;;;30.32;18.57
62942;BME280;49042;47.318;19.874;2023-03-24T13:42:48;99725.22;;;29.33;18.89
62942;BME280;49042;47.318;19.874;2023-03-24T13:46:03;99718.72;;;32.16;17.05
62942;BME280;49042;47.318;19.874;2023-03-24T13:49:11;99710.78;;;32.40;16.64
62942;BME280;49042;47.318;19.874;2023-03-24T13:55:29;99719.63;;;29.21;18.97
62942;BME280;49042;47.318;19.874;2023-03-24T13:58:49;99711.37;;;32.19;16.86
62942;BME280;49042;47.318;19.874;2023-03-24T14:02:17;99700.72;;;31.78;17.25
62942;BME280;49042;47.318;19.874;2023-03-24T14:08:41;99684.66;;;31.50;18.19
62942;BME280;49042;47.318;19.874;2023-03-24T14:11:48;99685.09;;;27.67;21.68
62942;BME280;49042;47.318;19.874;2023-03-24T14:15:13;99681.25;;;25.65;23.73
62942;BME280;49042;47.318;19.874;2023-03-24T14:21:28;99680.50;;;23.57;28.13
62942;BME280;49042;47.318;19.874;2023-03-24T14:24:30;99673.25;;;23.08;28.28
62942;BME280;49042;47.318;19.874;2023-03-24T14:27:36;99676.81;;;22.81;28.12
62942;BME280;49042;47.318;19.874;2023-03-24T14:30:56;99666.78;;;22.61;27.81
62942;BME280;49042;47.318;19.874;2023-03-24T14:34:07;99673.28;;;22.81;28.21
62942;BME280;49042;47.318;19.874;2023-03-24T14:37:14;99656.19;;;22.59;28.44
62942;BME280;49042;47.318;19.874;2023-03-24T14:40:25;99671.00;;;22.68;28.03
62942;BME280;49042;47.318;19.874;2023-03-24T14:46:45;99661.31;;;22.65;29.21
62942;BME280;49042;47.318;19.874;2023-03-24T14:49:53;99655.22;;;22.62;29.40
62942;BME280;49042;47.318;19.874;2023-03-24T14:53:01;99652.38;;;22.68;27.72
62942;BME280;49042;47.318;19.874;2023-03-24T14:56:05;99644.34;;;22.70;27.86
62942;BME280;49042;47.318;19.874;2023-03-24T14:59:26;99648.22;;;22.88;28.39
62942;BME280;49042;47.318;19.874;2023-03-24T15:02:49;99646.84;;;22.76;27.44
62942;BME280;49042;47.318;19.874;2023-03-24T15:05:51;99634.81;;;22.64;27.79
62942;BME280;49042;47.318;19.874;2023-03-24T15:08:58;99645.31;;;22.96;27.90
62942;BME280;49042;47.318;19.874;2023-03-24T15:12:02;99634.94;;;22.88;28.36
62942;BME280;49042;47.318;19.874;2023-03-24T15:15:12;99628.91;;;22.83;28.49
62942;BME280;49042;47.318;19.874;2023-03-24T15:18:16;99617.00;;;23.20;28.26
62942;BME280;49042;47.318;19.874;2023-03-24T15:21:23;99618.25;;;24.34;26.18
62942;BME280;49042;47.318;19.874;2023-03-24T15:24:31;99619.69;;;24.86;25.36
62942;BME280;49042;47.318;19.874;2023-03-24T15:27:33;99617.81;;;24.45;26.44
62942;BME280;49042;47.318;19.874;2023-03-24T15:30:36;99617.09;;;23.93;26.61
62942;BME280;49042;47.318;19.874;2023-03-24T15:33:41;99613.03;;;23.58;27.80
62942;BME280;49042;47.318;19.874;2023-03-24T15:36:43;99619.78;;;22.34;29.48
62942;BME280;49042;47.318;19.874;2023-03-24T15:39:52;99617.25;;;22.00;29.49
62942;BME280;49042;47.318;19.874;2023-03-24T15:43:15;99608.66;;;21.60;30.53
62942;BME280;49042;47.318;19.874;2023-03-24T15:49:32;99603.59;;;21.18;30.62
62942;BME280;49042;47.318;19.874;2023-03-24T15:52:36;99600.62;;;20.94;30.98
62942;BME280;49042;47.318;19.874;2023-03-24T15:55:41;99602.78;;;20.78;31.51
62942;BME280;49042;47.318;19.874;2023-03-24T16:01:49;99604.72;;;20.73;31.67
62942;BME280;49042;47.318;19.874;2023-03-24T16:04:58;99603.38;;;20.54;32.25
62942;BME280;49042;47.318;19.874;2023-03-24T16:08:34;99609.38;;;20.63;31.55
62942;BME280;49042;47.318;19.874;2023-03-24T16:11:40;99601.84;;;20.44;32.78
62942;BME280;49042;47.318;19.874;2023-03-24T16:14:42;99601.94;;;20.39;32.92
62942;BME280;49042;47.318;19.874;2023-03-24T16:17:44;99607.53;;;20.27;33.32
62942;BME280;49042;47.318;19.874;2023-03-24T16:20:46;99602.31;;;20.24;33.32
62942;BME280;49042;47.318;19.874;2023-03-24T16:23:50;99592.31;;;19.95;33.48
62942;BME280;49042;47.318;19.874;2023-03-24T16:26:52;99601.00;;;20.02;33.99
62942;BME280;49042;47.318;19.874;2023-03-24T16:29:54;99592.09;;;20.06;33.46
62942;BME280;49042;47.318;19.874;2023-03-24T16:32:56;99593.31;;;19.89;33.93
62942;BME280;49042;47.318;19.874;2023-03-24T16:35:59;99601.38;;;19.85;33.96
62942;BME280;49042;47.318;19.874;2023-03-24T16:39:01;99592.84;;;19.68;34.85
62942;BME280;49042;47.318;19.874;2023-03-24T16:42:03;99591.00;;;19.74;34.43
62942;BME280;49042;47.318;19.874;2023-03-24T16:45:05;99592.22;;;19.57;35.27
62942;BME280;49042;47.318;19.874;2023-03-24T16:48:10;99590.66;;;19.46;34.68
62942;BME280;49042;47.318;19.874;2023-03-24T16:51:13;99595.84;;;19.53;35.61
62942;BME280;49042;47.318;19.874;2023-03-24T16:54:15;99597.00;;;19.37;36.20
62942;BME280;49042;47.318;19.874;2023-03-24T16:57:17;99606.16;;;19.18;36.49
62942;BME280;49042;47.318;19.874;2023-03-24T17:00:19;99599.41;;;19.01;36.63
62942;BME280;49042;47.318;19.874;2023-03-24T17:03:21;99609.53;;;19.28;37.09
62942;BME280;49042;47.318;19.874;2023-03-24T17:06:26;99604.81;;;18.91;37.36
62942;BME280;49042;47.318;19.874;2023-03-24T17:09:28;99610.84;;;18.46;38.19
62942;BME280;49042;47.318;19.874;2023-03-24T17:12:31;99606.44;;;18.45;38.63
62942;BME280;49042;47.318;19.874;2023-03-24T17:15:33;99612.91;;;18.20;38.53
62942;BME280;49042;47.318;19.874;2023-03-24T17:18:35;99611.25;;;18.14;38.55
62942;BME280;49042;47.318;19.874;2023-03-24T17:21:48;99616.28;;;18.35;38.24
62942;BME280;49042;47.318;19.874;2023-03-24T17:24:51;99613.00;;;18.15;39.28
62942;BME280;49042;47.318;19.874;2023-03-24T17:27:58;99609.63;;;18.05;39.53
62942;BME280;49042;47.318;19.874;2023-03-24T17:31:00;99606.91;;;18.12;39.64
62942;BME280;49042;47.318;19.874;2023-03-24T17:34:02;99610.47;;;18.06;39.19
62942;BME280;49042;47.318;19.874;2023-03-24T17:37:21;99606.16;;;18.02;39.56
62942;BME280;49042;47.318;19.874;2023-03-24T17:40:25;99606.34;;;17.86;40.05
62942;BME280;49042;47.318;19.874;2023-03-24T17:43:27;99599.53;;;17.68;40.58
62942;BME280;49042;47.318;19.874;2023-03-24T17:46:29;99603.91;;;17.70;40.72
62942;BME280;49042;47.318;19.874;2023-03-24T17:49:32;99602.25;;;17.60;41.20
62942;BME280;49042;47.318;19.874;2023-03-24T17:52:45;99598.94;;;17.45;41.49
62942;BME280;49042;47.318;19.874;2023-03-24T17:55:49;99594.47;;;17.50;41.54
62942;BME280;49042;47.318;19.874;2023-03-24T17:58:54;99586.66;;;17.39;41.67
62942;BME280;49042;47.318;19.874;2023-03-24T18:01:59;99592.78;;;17.43;41.57
62942;BME280;49042;47.318;19.874;2023-03-24T18:05:01;99590.88;;;16.58;43.70
62942;BME280;49042;47.318;19.874;2023-03-24T18:08:04;99590.22;;;16.27;44.33
62942;BME280;49042;47.318;19.874;2023-03-24T18:11:11;99575.50;;;15.93;44.77
62942;BME280;49042;47.318;19.874;2023-03-24T18:14:15;99587.69;;;16.13;44.73
62942;BME280;49042;47.318;19.874;2023-03-24T18:17:17;99589.41;;;16.18;44.23
62942;BME280;49042;47.318;19.874;2023-03-24T18:20:20;99589.41;;;16.19;43.73